Time;durP1;ratioP1;P1;durP2;ratioP2;P2;SDS_P1;SDS_P2;PMS_P1;PMS_P2;Temp;Humidity;BMP_temperature;BMP_pressure;BME280_temperature;BME280_humidity;BME280_pressure;Samples;Min_cycle;Max_cycle;Signal;HPM_P1;HPM_P2
2021/10/08 00:00:27;;;;;;;4.87;4.47;;;;;19.90;101878.00;;;;2087978;28;20220;-56
2021/10/08 00:01:30;;;;;;;4.70;4.30;;;;;19.90;101882.00;;;;2087756;28;20205;-55
2021/10/08 00:02:31;;;;;;;5.10;4.60;;;;;19.90;101876.00;;;;2085881;28;20220;-54
2021/10/08 00:03:31;;;;;;;5.30;4.80;;;;;19.90;101877.00;;;;2079387;28;20229;-54
2021/10/08 00:04:32;;;;;;;4.80;4.40;;;;;19.90;101879.00;;;;2087251;28;20616;-55
2021/10/08 00:05:32;;;;;;;5.10;4.70;;;;;19.90;101872.00;;;;2081676;28;20218;-54
2021/10/08 00:06:32;;;;;;;5.00;4.57;;;;;19.90;101875.00;;;;2083140;28;20267;-54
2021/10/08 00:07:33;;;;;;;5.00;4.60;;;;;19.90;101873.00;;;;2082765;28;20275;-54
2021/10/08 00:08:33;;;;;;;5.00;4.60;;;;;19.80;101873.00;;;;2079696;28;20205;-56
2021/10/08 00:09:34;;;;;;;5.77;5.27;;;;;19.90;101881.00;;;;2079425;28;20217;-56
2021/10/08 00:10:34;;;;;;;5.00;4.57;;;;;19.80;101876.00;;;;2079653;28;20218;-56
2021/10/08 00:11:34;;;;;;;4.83;4.40;;;;;19.90;101876.00;;;;2079035;28;20671;-54
2021/10/08 00:12:35;;;;;;;4.77;4.37;;;;;19.80;101878.00;;;;2079273;28;20328;-54
2021/10/08 00:13:36;;;;;;;5.30;4.80;;;;;19.80;101882.00;;;;2078949;28;20248;-54
2021/10/08 00:14:36;;;;;;;4.80;4.40;;;;;19.80;101884.00;;;;2078323;28;20484;-55
2021/10/08 00:15:37;;;;;;;5.30;4.90;;;;;19.80;101888.00;;;;2079701;28;20217;-54
2021/10/08 00:16:37;;;;;;;5.60;5.10;;;;;19.80;101887.00;;;;2079724;28;20682;-54
2021/10/08 00:17:37;;;;;;;4.70;4.30;;;;;19.80;101875.00;;;;2078605;28;20213;-54
2021/10/08 00:18:38;;;;;;;4.90;4.50;;;;;19.80;101893.00;;;;2078747;28;20279;-55
2021/10/08 00:19:38;;;;;;;4.90;4.50;;;;;19.90;101876.00;;;;2078832;28;20282;-55
2021/10/08 00:20:39;;;;;;;5.33;4.83;;;;;19.80;101876.00;;;;2074768;28;20275;-55
2021/10/08 00:21:39;;;;;;;5.57;5.07;;;;;19.80;101857.00;;;;2078707;28;20706;-54
2021/10/08 00:22:40;;;;;;;5.00;4.60;;;;;19.80;101882.00;;;;2083096;28;20587;-54
2021/10/08 00:23:40;;;;;;;4.40;4.00;;;;;19.80;101878.00;;;;2085041;28;20217;-54
2021/10/08 00:24:40;;;;;;;4.40;4.00;;;;;19.90;101888.00;;;;2087049;28;20700;-54
2021/10/08 00:25:40;;;;;;;4.83;4.43;;;;;19.80;101888.00;;;;2085863;28;20677;-55
2021/10/08 00:26:41;;;;;;;5.80;5.30;;;;;19.80;101876.00;;;;2078987;28;20210;-54
2021/10/08 00:27:41;;;;;;;4.80;4.40;;;;;19.80;101875.00;;;;2079138;28;20217;-55
2021/10/08 00:28:42;;;;;;;5.30;4.90;;;;;19.80;101884.00;;;;2085799;28;20220;-55
2021/10/08 00:29:42;;;;;;;5.17;4.77;;;;;19.80;101889.00;;;;2086684;28;20227;-54
2021/10/08 00:30:42;;;;;;;5.17;4.77;;;;;19.80;101878.00;;;;2086771;28;20209;-54
2021/10/08 00:31:43;;;;;;;5.17;4.67;;;;;19.90;101886.00;;;;2087158;28;20217;-55
2021/10/08 00:32:43;;;;;;;5.10;4.67;;;;;19.90;101887.00;;;;2086325;28;20209;-55
2021/10/08 00:33:43;;;;;;;4.40;4.00;;;;;19.80;101880.00;;;;2086559;28;20205;-54
2021/10/08 00:34:44;;;;;;;5.30;4.90;;;;;19.80;101882.00;;;;2085096;28;20213;-54
2021/10/08 00:35:45;;;;;;;5.20;4.80;;;;;19.80;101885.00;;;;2082371;28;20270;-55
2021/10/08 00:36:45;;;;;;;4.87;4.47;;;;;19.80;101886.00;;;;2082951;28;20916;-54
2021/10/08 00:37:46;;;;;;;4.43;4.13;;;;;19.80;101887.00;;;;2083275;28;20300;-55
2021/10/08 00:38:46;;;;;;;5.00;4.60;;;;;19.80;101886.00;;;;2078847;28;20206;-54
2021/10/08 00:39:47;;;;;;;5.20;4.80;;;;;19.80;101891.00;;;;2078950;28;20271;-56
2021/10/08 00:40:48;;;;;;;5.10;4.60;;;;;19.80;101887.00;;;;2078831;28;20259;-58
2021/10/08 00:41:48;;;;;;;5.50;5.00;;;;;19.80;101897.00;;;;2078237;28;20295;-55
2021/10/08 00:42:49;;;;;;;4.90;4.50;;;;;19.80;101886.00;;;;2078833;28;20992;-56
2021/10/08 00:43:49;;;;;;;5.00;4.60;;;;;19.80;101891.00;;;;2079270;28;20944;-54
2021/10/08 00:44:50;;;;;;;4.83;4.43;;;;;19.80;101895.00;;;;2069778;28;20226;-56
2021/10/08 00:45:50;;;;;;;5.00;4.60;;;;;19.80;101893.00;;;;2078693;28;20263;-54
2021/10/08 00:46:50;;;;;;;5.97;5.47;;;;;19.80;101886.00;;;;2081795;28;20220;-55
2021/10/08 00:48:02;;;;;;;4.70;4.30;;;;;19.80;101888.00;;;;2087096;28;20307;-54
2021/10/08 00:49:02;;;;;;;5.00;4.60;;;;;19.80;101886.00;;;;2081391;28;20232;-54
2021/10/08 00:50:09;;;;;;;4.97;4.57;;;;;19.80;101885.00;;;;2079159;28;20709;-54
2021/10/08 00:51:09;;;;;;;5.03;4.63;;;;;19.80;101889.00;;;;2078803;28;20233;-55
2021/10/08 00:52:09;;;;;;;4.43;4.07;;;;;19.80;101888.00;;;;2077820;28;20294;-54
2021/10/08 00:53:10;;;;;;;4.87;4.47;;;;;19.80;101885.00;;;;2080011;28;20218;-54
2021/10/08 00:54:10;;;;;;;4.70;4.30;;;;;19.80;101883.00;;;;2087590;28;20216;-55
2021/10/08 00:55:10;;;;;;;4.70;4.30;;;;;19.80;101885.00;;;;2087693;28;20743;-54
2021/10/08 00:56:11;;;;;;;4.57;4.17;;;;;19.80;101877.00;;;;2081104;28;20232;-55
2021/10/08 00:57:11;;;;;;;4.90;4.50;;;;;19.80;101881.00;;;;2079494;28;20256;-56
2021/10/08 00:58:13;;;;;;;4.70;4.30;;;;;19.80;101892.00;;;;2078603;28;20300;-55
2021/10/08 00:59:14;;;;;;;4.75;4.35;;;;;19.80;101881.00;;;;2078304;28;20574;-54
2021/10/08 01:00:15;;;;;;;4.70;4.30;;;;;19.80;101883.00;;;;2079283;28;20308;-54
2021/10/08 01:01:18;;;;;;;4.55;4.15;;;;;19.80;101889.00;;;;2086829;28;20213;-55
2021/10/08 01:02:19;;;;;;;4.65;4.30;;;;;19.80;101889.00;;;;2078698;28;20210;-55
2021/10/08 01:03:21;;;;;;;4.65;4.28;;;;;19.80;101888.00;;;;2077979;28;20657;-54
2021/10/08 01:04:23;;;;;;;4.97;4.57;;;;;19.80;101888.00;;;;2078446;28;20217;-55
2021/10/08 01:05:24;;;;;;;4.50;4.10;;;;;19.80;101893.00;;;;2080099;28;20590;-55
2021/10/08 01:06:24;;;;;;;5.17;4.77;;;;;19.80;101882.00;;;;2086364;28;20517;-54
2021/10/08 01:07:25;;;;;;;4.77;4.37;;;;;19.80;101899.00;;;;2082280;28;20362;-54
2021/10/08 01:08:25;;;;;;;4.23;3.93;;;;;19.80;101889.00;;;;2079464;28;20233;-54
2021/10/08 01:09:26;;;;;;;4.50;4.20;;;;;19.80;101891.00;;;;2086600;28;20282;-55
2021/10/08 01:10:26;;;;;;;4.80;4.40;;;;;19.80;101885.00;;;;2087271;28;20797;-55
2021/10/08 01:11:26;;;;;;;5.07;4.67;;;;;19.80;101883.00;;;;2087559;28;20227;-54
2021/10/08 01:12:27;;;;;;;5.07;4.63;;;;;19.80;101885.00;;;;2080177;28;20214;-54
2021/10/08 01:13:27;;;;;;;4.70;4.30;;;;;19.80;101887.00;;;;2081811;28;20274;-55
2021/10/08 01:14:27;;;;;;;5.13;4.67;;;;;19.80;101885.00;;;;2087554;28;20424;-54
2021/10/08 01:15:28;;;;;;;5.47;5.00;;;;;19.80;101891.00;;;;2079586;28;20213;-55
2021/10/08 01:16:28;;;;;;;4.30;4.00;;;;;19.80;101883.00;;;;2079426;28;20229;-54
2021/10/08 01:17:29;;;;;;;4.77;4.37;;;;;19.80;101890.00;;;;2079138;28;20217;-54
2021/10/08 01:18:29;;;;;;;4.90;4.50;;;;;19.80;101880.00;;;;2079091;28;20277;-54
2021/10/08 01:19:29;;;;;;;4.33;4.03;;;;;19.80;101887.00;;;;2079021;28;20217;-54
2021/10/08 01:20:30;;;;;;;4.60;4.20;;;;;19.80;101884.00;;;;2079250;28;20729;-56
2021/10/08 01:21:31;;;;;;;4.67;4.27;;;;;19.80;101886.00;;;;2079378;28;20626;-55
2021/10/08 01:22:31;;;;;;;4.50;4.17;;;;;19.80;101881.00;;;;2085330;28;20209;-56
2021/10/08 01:23:32;;;;;;;5.40;4.97;;;;;19.80;101890.00;;;;2086685;28;20642;-56
2021/10/08 01:24:33;;;;;;;4.80;4.40;;;;;19.80;101892.00;;;;2087365;28;20701;-55
2021/10/08 01:25:34;;;;;;;4.40;4.00;;;;;19.80;101889.00;;;;2086836;28;20201;-55
2021/10/08 01:26:34;;;;;;;4.47;4.18;;;;;19.80;101882.00;;;;2082258;28;20444;-54
2021/10/08 01:27:35;;;;;;;4.57;4.17;;;;;19.80;101885.00;;;;2079112;28;20205;-54
2021/10/08 01:28:35;;;;;;;4.83;4.33;;;;;19.80;101889.00;;;;2079137;28;20202;-54
2021/10/08 01:29:47;;;;;;;4.30;4.00;;;;;19.80;101890.00;;;;2078489;28;20453;-54
2021/10/08 01:30:48;;;;;;;4.45;4.05;;;;;19.80;101888.00;;;;2083422;28;20213;-55
2021/10/08 01:31:48;;;;;;;4.43;4.13;;;;;19.80;101895.00;;;;2085171;28;20324;-55
2021/10/08 01:32:48;;;;;;;4.27;3.97;;;;;19.80;101881.00;;;;2086519;28;20216;-54
2021/10/08 01:33:50;;;;;;;4.27;3.97;;;;;19.80;101894.00;;;;2084654;28;20217;-55
2021/10/08 01:34:50;;;;;;;4.20;3.90;;;;;19.80;101884.00;;;;2078557;28;20275;-54
2021/10/08 01:35:51;;;;;;;4.43;4.13;;;;;19.80;101888.00;;;;2082520;28;20274;-54
2021/10/08 01:36:51;;;;;;;4.47;4.17;;;;;19.80;101889.00;;;;2082119;28;20210;-55
2021/10/08 01:37:52;;;;;;;5.37;4.97;;;;;19.80;101888.00;;;;2081442;28;20213;-56
2021/10/08 01:38:52;;;;;;;4.53;4.17;;;;;19.80;101888.00;;;;2085467;28;20280;-56
2021/10/08 01:39:52;;;;;;;4.20;3.90;;;;;19.80;101887.00;;;;2085927;28;20221;-56
2021/10/08 01:40:53;;;;;;;4.83;4.43;;;;;19.80;101892.00;;;;2083232;28;20221;-55
2021/10/08 01:41:53;;;;;;;4.53;4.20;;;;;19.80;101891.00;;;;2084793;28;20216;-54
2021/10/08 01:42:54;;;;;;;4.73;4.43;;;;;19.80;101887.00;;;;2079169;28;20292;-55
2021/10/08 01:43:55;;;;;;;4.73;4.30;;;;;19.80;101890.00;;;;2078989;28;20759;-54
2021/10/08 01:44:55;;;;;;;4.37;4.03;;;;;19.80;101891.00;;;;2086645;28;20971;-54
2021/10/08 01:45:55;;;;;;;4.13;3.83;;;;;19.80;101891.00;;;;2079579;28;20680;-55
2021/10/08 01:46:56;;;;;;;4.87;4.47;;;;;19.80;101899.00;;;;2085741;28;20296;-54
2021/10/08 01:47:56;;;;;;;4.60;4.20;;;;;19.80;101889.00;;;;2086548;28;20460;-55
2021/10/08 01:48:56;;;;;;;4.20;3.90;;;;;19.80;101890.00;;;;2085777;28;20217;-55
2021/10/08 01:49:57;;;;;;;4.10;3.80;;;;;19.80;101894.00;;;;2086244;28;20221;-59
2021/10/08 01:50:57;;;;;;;4.43;4.13;;;;;19.80;101896.00;;;;2088325;28;20213;-57
2021/10/08 01:51:59;;;;;;;4.70;4.30;;;;;19.80;101897.00;;;;2088984;28;20205;-56
2021/10/08 01:52:59;;;;;;;4.25;3.95;;;;;19.80;101895.00;;;;2086746;28;20217;-54
2021/10/08 01:54:00;;;;;;;4.60;4.30;;;;;19.80;101899.00;;;;2088172;28;20295;-53
2021/10/08 01:55:00;;;;;;;4.33;3.97;;;;;19.80;101902.00;;;;2088905;28;20538;-54
2021/10/08 01:56:01;;;;;;;4.63;4.23;;;;;19.80;101901.00;;;;2088493;28;20299;-55
2021/10/08 01:57:01;;;;;;;4.80;4.40;;;;;19.80;101892.00;;;;2088970;28;20243;-55
2021/10/08 01:58:01;;;;;;;4.40;4.10;;;;;19.80;101893.00;;;;2088945;28;20219;-55
2021/10/08 01:59:02;;;;;;;4.33;4.03;;;;;19.80;101893.00;;;;2088605;28;20215;-55
2021/10/08 02:00:04;;;;;;;4.47;4.07;;;;;19.80;101896.00;;;;2087189;28;20582;-55
2021/10/08 02:01:04;;;;;;;4.57;4.28;;;;;19.80;101894.00;;;;2088875;28;20204;-55
2021/10/08 02:02:05;;;;;;;4.70;4.30;;;;;19.80;101895.00;;;;2088610;28;20670;-54
2021/10/08 02:03:05;;;;;;;4.57;4.17;;;;;19.80;101892.00;;;;2088829;28;20280;-55
2021/10/08 02:04:05;;;;;;;4.40;4.00;;;;;19.80;101892.00;;;;2088174;28;20213;-56
2021/10/08 02:05:06;;;;;;;4.70;4.30;;;;;19.80;101891.00;;;;2088382;28;20236;-55
2021/10/08 02:06:06;;;;;;;4.40;4.00;;;;;19.80;101891.00;;;;2083335;28;20221;-54
2021/10/08 02:07:07;;;;;;;4.50;4.20;;;;;19.80;101891.00;;;;2082902;28;20241;-55
2021/10/08 02:08:07;;;;;;;4.67;4.30;;;;;19.80;101893.00;;;;2082401;28;20231;-54
2021/10/08 02:09:08;;;;;;;5.00;4.60;;;;;19.80;101888.00;;;;2087252;28;20234;-54
2021/10/08 02:10:08;;;;;;;4.50;4.20;;;;;19.80;101883.00;;;;2088227;28;20270;-54
2021/10/08 02:11:09;;;;;;;4.30;4.00;;;;;19.80;101888.00;;;;2088748;28;20308;-55
2021/10/08 02:12:10;;;;;;;4.60;4.20;;;;;19.80;101889.00;;;;2079775;28;20223;-55
2021/10/08 02:13:10;;;;;;;4.53;4.13;;;;;19.80;101884.00;;;;2074980;28;20467;-54
2021/10/08 02:14:11;;;;;;;4.60;4.20;;;;;19.80;101888.00;;;;2080518;28;20459;-56
2021/10/08 02:15:11;;;;;;;5.63;4.47;;;;;19.70;101885.00;;;;2080669;28;20220;-55
2021/10/08 02:16:11;;;;;;;4.83;4.43;;;;;19.70;101886.00;;;;2080326;28;20275;-55
2021/10/08 02:17:12;;;;;;;4.13;3.83;;;;;19.70;101888.00;;;;2083315;28;20299;-55
2021/10/08 02:18:12;;;;;;;4.50;4.20;;;;;19.70;101901.00;;;;2081108;28;20206;-55
2021/10/08 02:19:13;;;;;;;4.80;4.40;;;;;19.80;101893.00;;;;2080414;28;20236;-54
2021/10/08 02:20:13;;;;;;;5.30;4.13;;;;;19.70;101890.00;;;;2080450;28;20589;-54
2021/10/08 02:21:13;;;;;;;4.20;3.90;;;;;19.70;101886.00;;;;2084786;28;20255;-55
2021/10/08 02:22:14;;;;;;;4.07;3.77;;;;;19.70;101891.00;;;;2084881;28;20278;-54
2021/10/08 02:23:15;;;;;;;4.30;4.00;;;;;19.80;101894.00;;;;2088788;28;20217;-54
2021/10/08 02:24:16;;;;;;;3.93;3.63;;;;;19.80;101897.00;;;;2088659;28;20311;-55
2021/10/08 02:25:16;;;;;;;3.97;3.67;;;;;19.70;101890.00;;;;2079661;28;20220;-54
2021/10/08 02:26:17;;;;;;;4.13;3.83;;;;;19.70;101890.00;;;;2079179;28;20632;-54
2021/10/08 02:27:17;;;;;;;3.83;3.53;;;;;19.70;101898.00;;;;2080042;28;20240;-55
2021/10/08 02:28:17;;;;;;;4.63;4.27;;;;;19.70;101891.00;;;;2080033;28;20307;-55
2021/10/08 02:29:18;;;;;;;4.13;3.83;;;;;19.70;101886.00;;;;2079242;28;20738;-54
2021/10/08 02:30:18;;;;;;;4.20;3.90;;;;;19.80;101894.00;;;;2079431;28;20785;-54
2021/10/08 02:31:18;;;;;;;4.50;4.20;;;;;19.80;101884.00;;;;2080355;28;20237;-56
2021/10/08 02:32:19;;;;;;;4.33;3.93;;;;;19.80;101883.00;;;;2079594;28;20224;-54
2021/10/08 02:33:19;;;;;;;3.90;3.60;;;;;19.70;101889.00;;;;2084554;28;20307;-54
2021/10/08 02:34:20;;;;;;;4.20;3.90;;;;;19.70;101885.00;;;;2088012;28;20884;-54
2021/10/08 02:35:20;;;;;;;4.57;4.17;;;;;19.70;101884.00;;;;2087519;28;20213;-54
2021/10/08 02:36:20;;;;;;;4.00;3.70;;;;;19.70;101888.00;;;;2083164;28;20852;-55
2021/10/08 02:37:21;;;;;;;4.33;3.97;;;;;19.80;101887.00;;;;2082133;28;20228;-55
2021/10/08 02:38:22;;;;;;;4.38;3.97;;;;;19.70;101891.00;;;;2079203;28;20222;-54
2021/10/08 02:39:23;;;;;;;4.10;3.80;;;;;19.70;101893.00;;;;2078758;28;20283;-55
2021/10/08 02:40:23;;;;;;;4.40;4.10;;;;;19.70;101889.00;;;;2085737;28;20693;-55
2021/10/08 02:41:23;;;;;;;4.00;3.70;;;;;19.70;101883.00;;;;2086724;28;20228;-54
2021/10/08 02:42:24;;;;;;;3.87;3.53;;;;;19.70;101887.00;;;;2087834;28;20220;-54
2021/10/08 02:43:24;;;;;;;4.40;4.10;;;;;19.70;101891.00;;;;2088076;28;20278;-54
2021/10/08 02:44:25;;;;;;;4.00;3.70;;;;;19.70;101888.00;;;;2080676;28;20228;-55
2021/10/08 02:45:25;;;;;;;4.30;4.00;;;;;19.80;101884.00;;;;2080086;28;20588;-55
2021/10/08 02:46:26;;;;;;;4.37;4.07;;;;;19.70;101886.00;;;;2080062;28;20296;-54
2021/10/08 02:47:26;;;;;;;4.63;4.23;;;;;19.70;101878.00;;;;2078597;28;20301;-55
2021/10/08 02:48:26;;;;;;;4.50;4.10;;;;;19.70;101885.00;;;;2079856;28;20210;-55
2021/10/08 02:49:27;;;;;;;4.20;3.83;;;;;19.70;101883.00;;;;2087938;28;20259;-55
2021/10/08 02:50:28;;;;;;;4.70;4.30;;;;;19.70;101880.00;;;;2081808;28;20705;-55
2021/10/08 02:51:28;;;;;;;4.67;4.33;;;;;19.70;101875.00;;;;2079017;28;20248;-55
2021/10/08 02:52:28;;;;;;;4.43;3.80;;;;;19.70;101880.00;;;;2082373;28;20213;-54
2021/10/08 02:53:29;;;;;;;4.50;4.10;;;;;19.70;101875.00;;;;2079742;28;20217;-55
2021/10/08 02:54:30;;;;;;;3.90;3.60;;;;;19.70;101878.00;;;;2079657;28;20690;-54
2021/10/08 02:55:30;;;;;;;4.00;3.70;;;;;19.70;101882.00;;;;2079876;28;20213;-55
2021/10/08 02:56:30;;;;;;;4.13;3.83;;;;;19.70;101882.00;;;;2080315;28;20221;-54
2021/10/08 02:57:31;;;;;;;4.00;3.70;;;;;19.70;101883.00;;;;2079566;28;20299;-55
2021/10/08 02:58:32;;;;;;;4.40;4.00;;;;;19.70;101876.00;;;;2080308;28;20229;-54
2021/10/08 02:59:32;;;;;;;4.05;3.75;;;;;19.70;101885.00;;;;2079698;28;20210;-54
2021/10/08 03:00:32;;;;;;;4.20;3.80;;;;;19.70;101879.00;;;;2083268;28;20217;-55
2021/10/08 03:01:33;;;;;;;4.07;3.77;;;;;19.70;101892.00;;;;2085023;28;20205;-55
2021/10/08 03:02:33;;;;;;;3.97;3.67;;;;;19.70;101891.00;;;;2087981;28;20274;-53
2021/10/08 03:03:34;;;;;;;4.07;3.77;;;;;19.70;101884.00;;;;2084605;28;20208;-56
2021/10/08 03:04:34;;;;;;;4.50;4.10;;;;;19.70;101890.00;;;;2088388;28;20725;-54
2021/10/08 03:05:35;;;;;;;3.83;3.53;;;;;19.70;101888.00;;;;2086313;28;20201;-54
2021/10/08 03:06:35;;;;;;;3.70;3.50;;;;;19.70;101884.00;;;;2084046;28;20209;-55
2021/10/08 03:07:36;;;;;;;4.57;4.20;;;;;19.70;101884.00;;;;2081587;28;20756;-55
2021/10/08 03:08:36;;;;;;;3.87;3.57;;;;;19.70;101892.00;;;;2082369;28;20451;-54
2021/10/08 03:09:37;;;;;;;4.00;3.70;;;;;19.70;101883.00;;;;2084101;28;20717;-54
2021/10/08 03:10:37;;;;;;;3.97;3.67;;;;;19.70;101889.00;;;;2080080;28;20612;-54
2021/10/08 03:11:37;;;;;;;4.10;3.80;;;;;19.70;101890.00;;;;2080048;28;20218;-55
2021/10/08 03:12:38;;;;;;;3.90;3.60;;;;;19.70;101886.00;;;;2076160;28;20209;-54
2021/10/08 03:13:38;;;;;;;3.60;3.30;;;;;19.70;101887.00;;;;2078625;28;20252;-58
2021/10/08 03:14:38;;;;;;;3.93;3.63;;;;;19.70;101887.00;;;;2080043;28;20343;-54
2021/10/08 03:15:39;;;;;;;4.47;4.10;;;;;19.70;101880.00;;;;2079974;28;20733;-55
2021/10/08 03:16:39;;;;;;;4.00;3.70;;;;;19.70;101886.00;;;;2080230;28;20214;-55
2021/10/08 03:17:40;;;;;;;3.50;3.30;;;;;19.70;101885.00;;;;2086666;28;20575;-54
2021/10/08 03:18:40;;;;;;;4.50;3.80;;;;;19.70;101891.00;;;;2088240;28;20209;-53
2021/10/08 03:19:41;;;;;;;3.70;3.40;;;;;19.70;101890.00;;;;2080244;28;20679;-54
2021/10/08 03:20:42;;;;;;;4.10;3.80;;;;;19.70;101879.00;;;;2079186;28;20577;-56
2021/10/08 03:21:42;;;;;;;4.77;4.37;;;;;19.70;101889.00;;;;2080368;28;20452;-54
2021/10/08 03:22:42;;;;;;;4.40;4.00;;;;;19.70;101879.00;;;;2088272;28;20220;-54
2021/10/08 03:23:43;;;;;;;3.80;3.50;;;;;19.70;101877.00;;;;2088407;28;20220;-54
2021/10/08 03:24:43;;;;;;;3.93;3.63;;;;;19.70;101878.00;;;;2088258;28;20280;-55
2021/10/08 03:25:44;;;;;;;4.17;3.87;;;;;19.70;101881.00;;;;2081681;28;20206;-54
2021/10/08 03:26:44;;;;;;;4.30;3.93;;;;;19.70;101887.00;;;;2086760;28;20343;-55
2021/10/08 03:27:44;;;;;;;4.10;3.80;;;;;19.70;101887.00;;;;2088267;28;20223;-55
2021/10/08 03:28:45;;;;;;;3.80;3.50;;;;;19.70;101890.00;;;;2087880;28;20208;-54
2021/10/08 03:29:46;;;;;;;4.20;3.90;;;;;19.70;101894.00;;;;2083576;28;20214;-55
2021/10/08 03:30:46;;;;;;;4.10;3.80;;;;;19.70;101895.00;;;;2087480;28;20562;-55
2021/10/08 03:31:46;;;;;;;3.30;3.10;;;;;19.70;101897.00;;;;2088167;28;20462;-54
2021/10/08 03:32:47;;;;;;;4.47;3.40;;;;;19.70;101898.00;;;;2088371;28;20216;-55
2021/10/08 03:33:47;;;;;;;3.70;3.40;;;;;19.70;101883.00;;;;2088030;28;20239;-54
2021/10/08 03:34:48;;;;;;;3.30;3.10;;;;;19.70;101892.00;;;;2088362;28;20205;-54
2021/10/08 03:35:48;;;;;;;3.87;3.57;;;;;19.70;101887.00;;;;2082836;28;20221;-56
2021/10/08 03:36:51;;;;;;;3.83;3.53;;;;;19.70;101888.00;;;;2082547;28;20218;-55
2021/10/08 03:38:06;;;;;;;3.63;3.33;;;;;19.70;101891.00;;;;2082195;28;20714;-54
2021/10/08 03:39:12;;;;;;;4.00;3.50;;;;;19.70;101897.00;;;;2079530;28;20217;-55
2021/10/08 03:40:20;;;;;;;3.90;3.60;;;;;19.70;101890.00;;;;2078716;28;20209;-59
2021/10/08 03:41:21;;;;;;;4.13;3.83;;;;;19.70;101886.00;;;;2079574;28;20259;-54
2021/10/08 03:42:22;;;;;;;3.80;3.50;;;;;19.70;101889.00;;;;2079910;28;20627;-55
2021/10/08 03:43:23;;;;;;;3.80;3.45;;;;;19.70;101894.00;;;;2079803;28;20217;-54
2021/10/08 03:44:23;;;;;;;3.50;3.20;;;;;19.70;101891.00;;;;2080168;28;20209;-55
2021/10/08 03:45:30;;;;;;;3.60;3.30;;;;;19.70;101879.00;;;;2080044;28;20206;-54
2021/10/08 03:46:39;;;;;;;3.67;3.40;;;;;19.70;101899.00;;;;2084510;28;20205;-54
2021/10/08 03:47:56;;;;;;;4.13;3.83;;;;;19.70;101889.00;;;;2087490;28;20946;-55
2021/10/08 03:50:09;;;;;;;3.90;3.60;;;;;19.70;101895.00;;;;2078686;28;20292;-55
2021/10/08 03:51:09;;;;;;;4.10;3.80;;;;;19.70;101896.00;;;;2086816;28;20216;-55
2021/10/08 03:52:10;;;;;;;3.77;3.50;;;;;19.70;101891.00;;;;2086464;28;20678;-53
2021/10/08 03:53:10;;;;;;;3.40;3.20;;;;;19.70;101894.00;;;;2081361;28;20219;-54
2021/10/08 03:54:11;;;;;;;3.40;3.20;;;;;19.70;101894.00;;;;2084365;28;20216;-55
2021/10/08 03:55:11;;;;;;;3.50;3.17;;;;;19.70;101898.00;;;;2087297;28;20747;-56
2021/10/08 03:56:11;;;;;;;3.63;3.33;;;;;19.70;101896.00;;;;2080698;28;20213;-55
2021/10/08 03:57:12;;;;;;;4.37;3.97;;;;;19.70;101888.00;;;;2079266;28;20292;-54
2021/10/08 03:58:12;;;;;;;3.77;3.47;;;;;19.70;101896.00;;;;2082670;28;20216;-54
2021/10/08 03:59:13;;;;;;;3.90;3.60;;;;;19.70;101884.00;;;;2087256;28;20670;-55
2021/10/08 04:00:13;;;;;;;3.50;3.23;;;;;19.70;101885.00;;;;2087261;28;20282;-56
2021/10/08 04:01:14;;;;;;;3.23;3.03;;;;;19.70;101895.00;;;;2087720;28;20220;-54
2021/10/08 04:02:14;;;;;;;3.70;3.37;;;;;19.70;101889.00;;;;2082197;28;20679;-56
2021/10/08 04:03:14;;;;;;;3.43;3.23;;;;;19.70;101888.00;;;;2078986;28;20213;-54
2021/10/08 04:04:15;;;;;;;3.50;3.20;;;;;19.70;101883.00;;;;2079262;28;20217;-55
2021/10/08 04:05:15;;;;;;;3.83;3.53;;;;;19.70;101888.00;;;;2084365;28;20296;-55
2021/10/08 04:06:16;;;;;;;3.87;3.57;;;;;19.70;101893.00;;;;2081119;28;20210;-59
2021/10/08 04:07:16;;;;;;;3.93;3.63;;;;;19.70;101898.00;;;;2083667;28;20213;-54
2021/10/08 04:08:17;;;;;;;3.50;3.20;;;;;19.70;101897.00;;;;2082597;28;20459;-56
2021/10/08 04:09:17;;;;;;;3.23;3.03;;;;;19.70;101902.00;;;;2086888;28;20292;-55
2021/10/08 04:10:17;;;;;;;3.87;3.57;;;;;19.70;101902.00;;;;2087669;28;20224;-55
2021/10/08 04:11:18;;;;;;;3.40;3.10;;;;;19.70;101897.00;;;;2088041;28;20220;-55
2021/10/08 04:12:18;;;;;;;3.53;3.23;;;;;19.70;101894.00;;;;2085862;28;20721;-55
2021/10/08 04:13:18;;;;;;;3.83;3.53;;;;;19.70;101893.00;;;;2079206;28;20218;-54
2021/10/08 04:14:19;;;;;;;3.73;3.43;;;;;19.70;101898.00;;;;2079009;28;20209;-53
2021/10/08 04:15:19;;;;;;;3.70;3.40;;;;;19.70;101904.00;;;;2086862;28;20208;-54
2021/10/08 04:16:20;;;;;;;4.00;3.70;;;;;19.70;101892.00;;;;2087908;28;20213;-54
2021/10/08 04:17:20;;;;;;;3.87;3.57;;;;;19.70;101904.00;;;;2087615;28;20311;-54
2021/10/08 04:18:21;;;;;;;3.87;3.57;;;;;19.70;101898.00;;;;2087023;28;20273;-53
2021/10/08 04:19:21;;;;;;;3.40;3.10;;;;;19.70;101899.00;;;;2079809;28;20233;-55
2021/10/08 04:20:21;;;;;;;3.00;2.80;;;;;19.70;101905.00;;;;2085136;28;20682;-54
2021/10/08 04:21:22;;;;;;;3.50;3.20;;;;;19.70;101910.00;;;;2087444;28;20859;-55
2021/10/08 04:22:22;;;;;;;3.43;3.23;;;;;19.70;101907.00;;;;2084697;28;20622;-55
2021/10/08 04:23:22;;;;;;;3.33;3.03;;;;;19.70;101907.00;;;;2085853;28;20216;-55
2021/10/08 04:24:23;;;;;;;3.43;3.20;;;;;19.70;101907.00;;;;2087174;28;20209;-54
2021/10/08 04:25:23;;;;;;;3.40;3.20;;;;;19.60;101909.00;;;;2086560;28;20562;-55
2021/10/08 04:26:23;;;;;;;3.80;3.50;;;;;19.60;101909.00;;;;2087055;28;20213;-54
2021/10/08 04:27:24;;;;;;;3.73;3.43;;;;;19.60;101913.00;;;;2083614;28;20213;-56
2021/10/08 04:28:24;;;;;;;3.33;3.13;;;;;19.60;101906.00;;;;2082175;28;20213;-55
2021/10/08 04:29:24;;;;;;;3.37;3.13;;;;;19.70;101917.00;;;;2078865;28;20586;-55
2021/10/08 04:30:25;;;;;;;3.13;2.93;;;;;19.70;101916.00;;;;2078714;28;20817;-54
2021/10/08 04:31:25;;;;;;;3.47;3.23;;;;;19.60;101913.00;;;;2078939;28;20670;-54
2021/10/08 04:32:26;;;;;;;3.73;3.43;;;;;19.60;101913.00;;;;2079150;28;20216;-55
2021/10/08 04:33:27;;;;;;;3.47;3.17;;;;;19.60;101915.00;;;;2079138;28;20628;-55
2021/10/08 04:34:27;;;;;;;3.78;3.47;;;;;19.60;101911.00;;;;2078980;28;20679;-54
2021/10/08 04:35:27;;;;;;;2.87;2.67;;;;;19.70;101915.00;;;;2080746;28;20209;-54
2021/10/08 04:36:28;;;;;;;3.77;3.47;;;;;19.60;101910.00;;;;2081240;28;20205;-55
2021/10/08 04:37:28;;;;;;;3.60;3.30;;;;;19.60;101912.00;;;;2080940;28;20228;-55
2021/10/08 04:38:29;;;;;;;2.73;2.53;;;;;19.70;101925.00;;;;2085139;28;20220;-54
2021/10/08 04:39:29;;;;;;;3.23;3.03;;;;;19.60;101913.00;;;;2080580;28;20752;-54
2021/10/08 04:40:30;;;;;;;3.20;2.97;;;;;19.70;101915.00;;;;2078961;28;20456;-54
2021/10/08 04:41:30;;;;;;;3.30;3.10;;;;;19.60;101911.00;;;;2082221;28;20358;-54
2021/10/08 04:42:30;;;;;;;3.70;3.40;;;;;19.60;101912.00;;;;2083401;28;20206;-54
2021/10/08 04:43:31;;;;;;;3.27;3.07;;;;;19.60;101911.00;;;;2078862;28;20237;-54
2021/10/08 04:44:33;;;;;;;3.00;2.80;;;;;19.70;101913.00;;;;2079046;28;20267;-54
2021/10/08 04:45:34;;;;;;;2.95;2.75;;;;;19.70;101907.00;;;;2079143;28;20753;-54
2021/10/08 04:46:34;;;;;;;3.60;3.30;;;;;19.70;101911.00;;;;2079203;28;20213;-55
2021/10/08 04:47:34;;;;;;;3.23;3.03;;;;;19.60;101908.00;;;;2078840;28;20267;-55
2021/10/08 04:48:35;;;;;;;3.37;3.17;;;;;19.70;101914.00;;;;2078930;28;20212;-54
2021/10/08 04:49:35;;;;;;;3.50;3.30;;;;;19.60;101909.00;;;;2086016;28;20208;-56
2021/10/08 04:50:36;;;;;;;3.67;3.40;;;;;19.70;101908.00;;;;2087517;28;20221;-54
2021/10/08 04:51:36;;;;;;;3.70;3.40;;;;;19.70;101911.00;;;;2087421;28;20320;-54
2021/10/08 04:52:36;;;;;;;3.93;3.40;;;;;19.60;101911.00;;;;2087674;28;20346;-55
2021/10/08 04:53:38;;;;;;;3.30;3.00;;;;;19.70;101910.00;;;;2082388;28;20264;-54
2021/10/08 04:54:38;;;;;;;3.20;3.00;;;;;19.60;101911.00;;;;2079400;28;20683;-55
2021/10/08 04:55:38;;;;;;;3.23;3.03;;;;;19.60;101909.00;;;;2079366;28;20201;-54
2021/10/08 04:56:39;;;;;;;3.73;3.43;;;;;19.60;101919.00;;;;2086105;28;20218;-54
2021/10/08 04:57:39;;;;;;;3.10;2.90;;;;;19.60;101908.00;;;;2080570;28;20225;-54
2021/10/08 04:58:40;;;;;;;3.17;2.97;;;;;19.60;101918.00;;;;2086869;28;20303;-55
2021/10/08 04:59:40;;;;;;;3.20;3.00;;;;;19.60;101912.00;;;;2086624;28;20213;-54
2021/10/08 05:00:40;;;;;;;3.13;2.93;;;;;19.70;101909.00;;;;2086341;28;20749;-54
2021/10/08 05:01:41;;;;;;;3.60;3.30;;;;;19.60;101907.00;;;;2086738;28;20721;-54